createdAt,value
2023-02-24T00:00:32.560Z,69.06
2023-02-24T00:03:37.718Z,69.26
2023-02-24T00:06:43.719Z,65.54
2023-02-24T00:09:46.657Z,64.70
2023-02-24T00:12:49.483Z,64.76
2023-02-24T00:16:01.035Z,63.83
2023-02-24T00:19:07.519Z,63.35
2023-02-24T00:22:10.156Z,63.44
2023-02-24T00:25:12.652Z,64.01
2023-02-24T00:28:15.177Z,63.67
2023-02-24T00:31:20.482Z,63.84
2023-02-24T00:34:23.949Z,65.26
2023-02-24T00:37:26.547Z,64.63
2023-02-24T00:40:30.462Z,64.72
2023-02-24T00:43:37.429Z,65.40
2023-02-24T00:46:45.071Z,65.80
2023-02-24T00:49:48.323Z,65.48
2023-02-24T00:52:50.928Z,65.60
2023-02-24T00:56:00.549Z,67.47
2023-02-24T00:59:03.984Z,67.95
2023-02-24T01:02:08.404Z,67.51
2023-02-24T01:05:12.202Z,67.34
2023-02-24T01:08:21.515Z,67.93
2023-02-24T01:11:51.528Z,68.66
2023-02-24T01:14:54.113Z,68.92
2023-02-24T01:17:56.744Z,69.90
2023-02-24T01:20:59.390Z,69.52
2023-02-24T01:24:02.005Z,70.22
2023-02-24T01:27:05.634Z,70.59
2023-02-24T01:30:16.088Z,70.67
2023-02-24T01:33:19.036Z,69.78
2023-02-24T01:36:25.808Z,69.44
2023-02-24T01:39:30.275Z,70.58
2023-02-24T01:42:32.975Z,71.10
2023-02-24T01:45:40.189Z,70.68
2023-02-24T01:48:42.737Z,71.04
2023-02-24T01:51:59.196Z,71.40
2023-02-24T01:55:16.643Z,70.76
2023-02-24T01:58:26.781Z,71.01
2023-02-24T02:01:40.499Z,71.62
2023-02-24T02:05:16.112Z,71.06
2023-02-24T02:08:21.579Z,71.45
2023-02-24T02:11:24.276Z,70.72
2023-02-24T02:14:29.504Z,70.39
2023-02-24T02:17:41.033Z,71.11
2023-02-24T02:21:09.385Z,70.23
2023-02-24T02:24:52.353Z,70.31
2023-02-24T02:28:26.773Z,69.93
2023-02-24T02:31:56.945Z,68.67
2023-02-24T02:35:24.890Z,68.16
2023-02-24T02:38:57.591Z,68.21
2023-02-24T02:42:27.680Z,68.69
2023-02-24T02:45:41.169Z,68.16
2023-02-24T02:48:58.209Z,68.64
2023-02-24T02:52:10.544Z,67.81
2023-02-24T02:55:23.931Z,68.00
2023-02-24T02:58:31.934Z,68.52
2023-02-24T03:01:39.226Z,69.79
2023-02-24T03:04:51.304Z,68.46
2023-02-24T03:07:56.932Z,68.50
2023-02-24T03:11:03.031Z,68.32
2023-02-24T03:14:07.817Z,68.01
2023-02-24T03:17:21.559Z,68.25
2023-02-24T03:20:33.015Z,68.80
2023-02-24T03:23:40.172Z,68.51
2023-02-24T03:26:54.123Z,68.83
2023-02-24T03:30:07.561Z,68.41
2023-02-24T03:33:18.127Z,68.03
2023-02-24T03:36:21.013Z,68.32
2023-02-24T03:39:24.509Z,68.52
2023-02-24T03:43:06.099Z,68.91
2023-02-24T03:46:09.084Z,69.03
2023-02-24T03:49:14.233Z,69.37
2023-02-24T03:52:29.266Z,69.35
2023-02-24T03:55:54.887Z,70.18
2023-02-24T03:59:25.310Z,69.53
2023-02-24T04:02:33.103Z,69.74
2023-02-24T04:05:47.723Z,68.98
2023-02-24T04:09:01.519Z,69.30
2023-02-24T04:12:13.908Z,69.62
2023-02-24T04:15:29.713Z,69.07
2023-02-24T04:18:33.415Z,69.49
2023-02-24T04:21:38.217Z,68.85
2023-02-24T04:24:44.542Z,69.16
2023-02-24T04:27:48.155Z,68.90
2023-02-24T04:30:58.962Z,69.20
2023-02-24T04:34:02.003Z,69.60
2023-02-24T04:37:11.517Z,69.47
2023-02-24T04:40:18.384Z,69.06
2023-02-24T04:43:21.008Z,69.10
2023-02-24T04:46:23.649Z,69.12
2023-02-24T04:49:26.847Z,69.58
2023-02-24T04:52:29.308Z,69.43
2023-02-24T04:55:33.431Z,69.76
2023-02-24T04:58:38.194Z,69.71
2023-02-24T05:01:44.339Z,70.18
2023-02-24T05:04:49.766Z,69.92
2023-02-24T05:07:57.312Z,70.40
2023-02-24T05:11:04.063Z,70.11
2023-02-24T05:14:07.939Z,69.67
2023-02-24T05:17:12.887Z,70.14
2023-02-24T05:20:34.016Z,69.66
2023-02-24T05:23:40.114Z,69.89
2023-02-24T05:26:42.848Z,69.94
2023-02-24T05:29:45.518Z,70.69
2023-02-24T05:32:48.096Z,70.63
2023-02-24T05:35:53.930Z,70.80
2023-02-24T05:39:07.939Z,70.42
2023-02-24T05:42:11.715Z,70.57
2023-02-24T05:45:14.329Z,71.04
2023-02-24T05:48:17.015Z,70.86
2023-02-24T05:51:19.807Z,70.49
2023-02-24T05:54:31.477Z,70.76
2023-02-24T05:57:35.793Z,71.51
2023-02-24T06:00:39.886Z,70.49
2023-02-24T06:03:48.102Z,71.24
2023-02-24T06:06:52.594Z,71.10
2023-02-24T06:09:57.859Z,71.38
2023-02-24T06:13:02.385Z,71.60
2023-02-24T06:16:06.896Z,71.22
2023-02-24T06:19:12.289Z,71.15
2023-02-24T06:22:17.100Z,70.73
2023-02-24T06:25:21.258Z,70.81
2023-02-24T06:28:25.172Z,70.64
2023-02-24T06:31:28.304Z,70.42
2023-02-24T06:34:31.524Z,70.50
2023-02-24T06:37:35.944Z,69.93
2023-02-24T06:40:38.738Z,70.34
2023-02-24T06:43:43.547Z,70.46
2023-02-24T06:46:46.379Z,70.16
2023-02-24T06:49:53.679Z,70.21
2023-02-24T06:53:00.929Z,70.30
2023-02-24T06:56:15.198Z,70.13
2023-02-24T06:59:28.526Z,70.03
2023-02-24T07:02:40.715Z,70.36
2023-02-24T07:05:50.443Z,70.69
2023-02-24T07:08:53.500Z,70.41
2023-02-24T07:11:57.012Z,70.69
2023-02-24T07:15:05.396Z,70.55
2023-02-24T07:18:15.245Z,70.33
2023-02-24T07:21:23.549Z,70.01
2023-02-24T07:24:37.617Z,69.87
2023-02-24T07:27:40.593Z,68.71
2023-02-24T07:31:26.773Z,69.65
2023-02-24T07:34:33.891Z,69.09
2023-02-24T07:37:36.819Z,69.14
2023-02-24T07:40:54.776Z,69.20
2023-02-24T07:44:00.172Z,69.41
2023-02-24T07:47:08.088Z,69.27
2023-02-24T07:50:14.949Z,69.23
2023-02-24T07:53:19.091Z,69.55
2023-02-24T07:56:27.087Z,69.76
2023-02-24T07:59:37.716Z,69.13
2023-02-24T08:02:40.431Z,68.73
2023-02-24T08:05:43.730Z,68.97
2023-02-24T08:08:59.053Z,68.31
2023-02-24T08:12:01.684Z,68.70
2023-02-24T08:15:17.314Z,68.97
2023-02-24T08:18:21.511Z,68.61
2023-02-24T08:21:27.578Z,67.74
2023-02-24T08:24:30.435Z,67.67
2023-02-24T08:27:39.173Z,68.02
2023-02-24T08:30:46.163Z,68.15
2023-02-24T08:33:48.977Z,68.96
2023-02-24T08:36:55.974Z,69.58
2023-02-24T08:39:58.914Z,69.83
2023-02-24T08:43:31.233Z,70.02
2023-02-24T08:46:38.002Z,70.33
2023-02-24T08:49:41.440Z,69.91
2023-02-24T08:52:48.193Z,69.92
2023-02-24T08:55:52.106Z,69.46
2023-02-24T08:59:07.273Z,68.94
2023-02-24T09:02:19.477Z,68.46
2023-02-24T09:05:29.799Z,69.00
2023-02-24T09:08:42.789Z,68.58
2023-02-24T09:11:57.200Z,68.52
2023-02-24T09:15:07.710Z,67.66
2023-02-24T09:18:14.595Z,67.77
2023-02-24T09:21:36.527Z,67.33
2023-02-24T09:24:40.184Z,66.66
2023-02-24T09:28:09.438Z,65.65
2023-02-24T09:31:17.457Z,64.76
2023-02-24T09:34:30.159Z,64.32
2023-02-24T09:37:34.279Z,63.49
2023-02-24T09:40:40.399Z,62.79
2023-02-24T09:43:44.554Z,62.54
2023-02-24T09:46:54.531Z,60.80
2023-02-24T09:50:14.335Z,61.27
2023-02-24T09:53:20.112Z,60.80
2023-02-24T09:56:29.134Z,60.75
2023-02-24T10:00:01.670Z,60.00
2023-02-24T10:03:44.136Z,59.26
2023-02-24T10:06:58.016Z,57.92
2023-02-24T10:10:25.976Z,57.94
2023-02-24T10:13:32.871Z,58.41
2023-02-24T10:16:43.530Z,58.74
2023-02-24T10:19:56.548Z,58.49
2023-02-24T10:23:09.852Z,58.67
2023-02-24T10:26:33.205Z,58.41
2023-02-24T10:30:05.164Z,58.11
2023-02-24T10:33:20.820Z,58.50
2023-02-24T10:36:35.773Z,57.82
2023-02-24T10:39:43.734Z,57.14
2023-02-24T10:42:48.983Z,57.26
2023-02-24T10:46:06.427Z,57.02
2023-02-24T10:49:14.692Z,57.33
2023-02-24T10:52:37.164Z,57.13
2023-02-24T10:55:47.519Z,56.93
2023-02-24T10:59:23.251Z,57.42
2023-02-24T11:02:30.266Z,57.83
2023-02-24T11:06:06.485Z,57.73
2023-02-24T11:09:30.281Z,57.17
2023-02-24T11:12:55.619Z,56.10
2023-02-24T11:16:21.861Z,56.35
2023-02-24T11:19:29.969Z,56.77
2023-02-24T11:22:39.760Z,55.87
2023-02-24T11:25:47.186Z,57.42
2023-02-24T11:29:17.641Z,58.24
2023-02-24T11:32:55.047Z,58.56
2023-02-24T11:36:05.357Z,57.53
2023-02-24T11:39:35.219Z,57.83
2023-02-24T11:42:46.296Z,57.97
2023-02-24T11:46:11.888Z,57.25
2023-02-24T11:49:37.368Z,56.47
2023-02-24T11:52:47.186Z,55.30
2023-02-24T11:55:59.228Z,54.96
2023-02-24T11:59:30.246Z,53.47
2023-02-24T12:02:52.006Z,51.71
2023-02-24T12:05:58.742Z,52.70
2023-02-24T12:09:15.631Z,52.54
2023-02-24T12:12:32.556Z,51.60
2023-02-24T12:16:03.149Z,52.58
2023-02-24T12:19:31.876Z,51.13
2023-02-24T12:22:51.683Z,50.65
2023-02-24T12:26:31.708Z,50.92
2023-02-24T12:29:58.303Z,50.17
2023-02-24T12:33:31.744Z,51.36
2023-02-24T12:36:44.280Z,51.25
2023-02-24T12:40:23.507Z,51.24
2023-02-24T12:43:52.503Z,51.13
2023-02-24T12:47:12.529Z,51.30
2023-02-24T12:50:43.505Z,51.86
2023-02-24T12:54:19.971Z,50.17
2023-02-24T12:57:25.493Z,51.10
2023-02-24T13:00:49.224Z,51.18
2023-02-24T13:03:55.450Z,50.85
2023-02-24T13:07:31.852Z,51.29
2023-02-24T13:10:44.098Z,51.44
2023-02-24T13:13:59.392Z,51.91
2023-02-24T13:17:10.871Z,51.12
2023-02-24T13:20:15.201Z,49.75
2023-02-24T13:23:22.169Z,50.56
2023-02-24T13:26:26.131Z,51.73
2023-02-24T13:29:28.678Z,51.72
2023-02-24T13:32:35.040Z,51.67
2023-02-24T13:35:38.779Z,52.24
2023-02-24T13:38:46.804Z,52.46
2023-02-24T13:41:50.001Z,52.95
2023-02-24T13:45:17.605Z,52.79
2023-02-24T13:48:54.206Z,52.37
2023-02-24T13:52:04.253Z,51.19
2023-02-24T13:55:24.266Z,48.63
2023-02-24T13:58:54.360Z,48.95
2023-02-24T14:02:03.769Z,48.04
2023-02-24T14:05:16.727Z,48.06
2023-02-24T14:08:25.824Z,47.10
2023-02-24T14:11:35.815Z,46.91
2023-02-24T14:14:39.839Z,46.86
2023-02-24T14:17:42.550Z,47.29
2023-02-24T14:20:45.398Z,48.70
2023-02-24T14:24:09.856Z,49.84
2023-02-24T14:27:26.504Z,51.29
2023-02-24T14:30:33.614Z,52.03
2023-02-24T14:33:38.909Z,52.12
2023-02-24T14:36:45.175Z,51.85
2023-02-24T14:39:57.062Z,52.06
2023-02-24T14:43:00.362Z,50.26
2023-02-24T14:46:06.301Z,50.26
2023-02-24T14:49:19.262Z,50.27
2023-02-24T14:52:30.768Z,50.00
2023-02-24T14:55:37.775Z,50.04
2023-02-24T14:58:48.814Z,50.30
2023-02-24T15:01:55.733Z,50.77
2023-02-24T15:04:59.612Z,50.87
2023-02-24T15:08:04.047Z,50.46
2023-02-24T15:11:19.582Z,51.27
2023-02-24T15:14:31.894Z,51.75
2023-02-24T15:17:40.376Z,51.93
2023-02-24T15:20:43.239Z,52.11
2023-02-24T15:23:47.612Z,52.69
2023-02-24T15:27:14.789Z,53.20
2023-02-24T15:30:34.607Z,53.33
2023-02-24T15:33:40.445Z,54.06
2023-02-24T15:36:43.211Z,54.35
2023-02-24T15:39:46.066Z,54.50
2023-02-24T15:42:57.844Z,54.63
2023-02-24T15:46:00.797Z,54.00
2023-02-24T15:49:05.223Z,53.54
2023-02-24T15:52:10.845Z,53.80
2023-02-24T15:55:18.155Z,53.51
2023-02-24T15:58:22.548Z,53.77
2023-02-24T16:01:26.316Z,54.11
2023-02-24T16:04:29.083Z,54.25
2023-02-24T16:07:37.064Z,54.33
2023-02-24T16:10:40.992Z,54.72
2023-02-24T16:13:48.740Z,55.11
2023-02-24T16:16:51.701Z,55.60
2023-02-24T16:19:57.153Z,55.82
2023-02-24T16:23:04.020Z,56.00
2023-02-24T16:26:13.446Z,56.64
2023-02-24T16:29:17.951Z,56.89
2023-02-24T16:32:23.888Z,57.10
2023-02-24T16:35:28.304Z,57.05
2023-02-24T16:38:31.268Z,57.04
2023-02-24T16:41:33.914Z,57.87
2023-02-24T16:44:37.146Z,58.00
2023-02-24T16:47:40.269Z,58.62
2023-02-24T16:50:44.244Z,59.03
2023-02-24T16:53:49.504Z,59.36
2023-02-24T16:56:54.357Z,60.07
2023-02-24T16:59:57.001Z,60.16
2023-02-24T17:03:25.006Z,60.83
2023-02-24T17:06:30.332Z,61.16
2023-02-24T17:09:33.771Z,61.47
2023-02-24T17:12:36.464Z,61.71
2023-02-24T17:15:44.338Z,62.47
2023-02-24T17:18:47.499Z,62.61
2023-02-24T17:21:49.999Z,63.05
2023-02-24T17:24:52.633Z,62.79
2023-02-24T17:27:57.350Z,62.82
2023-02-24T17:31:00.404Z,63.03
2023-02-24T17:34:06.345Z,62.50
2023-02-24T17:37:10.167Z,62.85
2023-02-24T17:40:15.359Z,62.54
2023-02-24T17:43:19.239Z,63.16
2023-02-24T17:46:22.656Z,62.85
2023-02-24T17:49:25.369Z,62.33
2023-02-24T17:52:29.661Z,61.92
2023-02-24T17:55:32.602Z,60.64
2023-02-24T17:58:36.024Z,60.06
2023-02-24T18:01:39.176Z,59.26
2023-02-24T18:04:42.396Z,58.91
2023-02-24T18:07:45.056Z,58.48
2023-02-24T18:10:47.958Z,57.74
2023-02-24T18:13:52.814Z,57.21
2023-02-24T18:16:56.770Z,57.35
2023-02-24T18:19:59.686Z,57.31
2023-02-24T18:23:02.397Z,57.64
2023-02-24T18:26:07.344Z,58.87
2023-02-24T18:29:11.543Z,59.69
2023-02-24T18:32:14.618Z,60.45
2023-02-24T18:35:22.268Z,61.60
2023-02-24T18:38:25.387Z,62.10
2023-02-24T18:41:28.710Z,62.59
2023-02-24T18:44:31.627Z,63.30
2023-02-24T18:47:34.399Z,63.56
2023-02-24T18:50:37.208Z,64.47
2023-02-24T18:53:40.992Z,64.90
2023-02-24T18:56:43.920Z,65.24
2023-02-24T18:59:51.058Z,65.50
2023-02-24T19:02:54.088Z,65.69
2023-02-24T19:05:57.730Z,66.13
2023-02-24T19:09:09.802Z,65.96
2023-02-24T19:12:12.810Z,66.30
2023-02-24T19:15:17.770Z,65.24
2023-02-24T19:18:20.548Z,64.70
2023-02-24T19:21:28.883Z,64.56
2023-02-24T19:24:31.692Z,65.21
2023-02-24T19:27:35.802Z,64.38
2023-02-24T19:30:39.492Z,64.57
2023-02-24T19:33:42.373Z,64.59
2023-02-24T19:36:45.996Z,65.07
2023-02-24T19:39:48.721Z,64.14
2023-02-24T19:42:53.167Z,64.04
2023-02-24T19:45:56.222Z,63.75
2023-02-24T19:49:00.352Z,64.06
2023-02-24T19:52:06.345Z,64.57
2023-02-24T19:55:11.356Z,64.51
2023-02-24T19:58:14.082Z,64.62
2023-02-24T20:01:17.141Z,64.13
2023-02-24T20:04:21.031Z,64.46
2023-02-24T20:07:24.507Z,64.45
2023-02-24T20:10:27.461Z,64.74
2023-02-24T20:13:31.422Z,64.73
2023-02-24T20:16:36.797Z,64.99
2023-02-24T20:19:39.618Z,65.08
2023-02-24T20:22:42.886Z,65.35
2023-02-24T20:25:52.342Z,65.60
2023-02-24T20:28:56.175Z,65.40
2023-02-24T20:32:00.025Z,65.57
2023-02-24T20:35:02.986Z,65.66
2023-02-24T20:38:06.699Z,65.86
2023-02-24T20:41:10.049Z,66.14
2023-02-24T20:44:12.690Z,66.41
2023-02-24T20:47:17.069Z,66.99
2023-02-24T20:50:22.560Z,66.86
2023-02-24T20:53:25.329Z,66.76
2023-02-24T20:56:33.150Z,66.50
2023-02-24T20:59:40.130Z,66.22
2023-02-24T21:02:43.738Z,66.58
2023-02-24T21:05:46.447Z,66.26
2023-02-24T21:08:49.443Z,66.22
2023-02-24T21:11:52.306Z,66.29
2023-02-24T21:14:54.909Z,67.40
2023-02-24T21:17:57.922Z,68.18
2023-02-24T21:21:00.498Z,67.72
2023-02-24T21:24:03.081Z,68.40
2023-02-24T21:27:05.869Z,68.45
2023-02-24T21:30:09.558Z,68.56
2023-02-24T21:33:13.130Z,68.99
2023-02-24T21:36:16.684Z,69.25
2023-02-24T21:39:20.941Z,69.26
2023-02-24T21:42:23.508Z,69.42
2023-02-24T21:45:27.808Z,70.56
2023-02-24T21:48:30.285Z,69.29
2023-02-24T21:51:34.148Z,69.74
2023-02-24T21:54:37.347Z,70.04
2023-02-24T21:57:46.621Z,70.84
2023-02-24T22:00:49.419Z,71.20
2023-02-24T22:04:00.036Z,71.13
2023-02-24T22:07:02.667Z,71.77
2023-02-24T22:10:05.738Z,71.54
2023-02-24T22:13:08.661Z,71.76
2023-02-24T22:16:20.361Z,72.33
2023-02-24T22:19:22.969Z,72.31
2023-02-24T22:22:25.542Z,72.90
2023-02-24T22:25:27.997Z,73.10
2023-02-24T22:28:33.350Z,73.13
2023-02-24T22:31:39.691Z,73.35
2023-02-24T22:34:42.265Z,73.98
2023-02-24T22:37:44.811Z,74.52
2023-02-24T22:41:02.557Z,74.62
2023-02-24T22:44:06.399Z,74.90
2023-02-24T22:47:08.952Z,74.61
2023-02-24T22:50:11.758Z,75.49
2023-02-24T22:53:14.391Z,75.70
2023-02-24T22:56:21.252Z,75.80
2023-02-24T22:59:24.098Z,76.28
2023-02-24T23:02:27.440Z,76.39
2023-02-24T23:05:30.069Z,76.52
2023-02-24T23:08:35.148Z,76.22
2023-02-24T23:11:41.321Z,76.88
2023-02-24T23:14:44.519Z,77.07
2023-02-24T23:17:49.001Z,77.13
2023-02-24T23:21:16.075Z,77.67
2023-02-24T23:24:20.973Z,77.36
2023-02-24T23:27:23.533Z,77.37
2023-02-24T23:30:26.194Z,77.13
2023-02-24T23:33:29.236Z,78.08
2023-02-24T23:36:32.223Z,77.68
2023-02-24T23:39:34.874Z,78.29
2023-02-24T23:42:38.224Z,78.30
2023-02-24T23:45:42.055Z,78.54
2023-02-24T23:48:45.851Z,78.33
2023-02-24T23:51:49.187Z,78.92
2023-02-24T23:54:52.846Z,78.95
2023-02-24T23:57:55.964Z,79.50
